Marco Polo — C6JZ7 — position and weather

sailwx.info

Track history (hours):
 
Tides and Currents Weather Stations Pressure Air Temp Water Temp Dewpoint Dewpoint Depression Visibility Wind Speed Wind Dir Waves Ship Positions

Marco Polo

Operator: Orient Lines

Last reported at 2017-Feb-24 04:33 UTC. Time now 2017-Feb-24 08:20 UTC.
Position N 62°36' E 007°23'.

Type: Ship. MMSI: 308691456.

Date/timePositionNaut miles runAvg speedWind from/ knotsBaromVisibWave heightAir tempDewpointWater temp
2017-Feb-24 04:33N 62°36' E 007°23'1312.8
2017-Feb-24 03:33N 62°43' E 006°60'1111.3
2017-Feb-24 02:34N 62°54' E 006°53'1211.7
2017-Feb-24 01:33N 63°05' E 006°50'1211.8
2017-Feb-24 00:33N 63°11' E 007°12'1212.3
2017-Feb-23 23:33N 63°15' E 007°38'10 9.6
2017-Feb-23 22:33N 63°06' E 007°44'1 0.7
2017-Feb-23 21:31N 63°07' E 007°44'0 0.0
2017-Feb-23 20:31N 63°07' E 007°44'0 0.0
2017-Feb-23 19:31N 63°07' E 007°44'0 0.0
2017-Feb-23 18:31N 63°07' E 007°44'0 0.0
2017-Feb-23 17:31N 63°07' E 007°44'0 0.0
2017-Feb-23 16:31N 63°07' E 007°44'0 0.0
2017-Feb-23 15:31N 63°07' E 007°44'0 0.0
2017-Feb-23 14:31N 63°07' E 007°44'0 0.0
2017-Feb-23 13:31N 63°07' E 007°44'0 0.0
2017-Feb-23 12:31N 63°07' E 007°44'0 0.0
2017-Feb-23 11:34N 63°07' E 007°44'1 1.4
2017-Feb-23 10:33N 63°06' E 007°41'9 9.2
2017-Feb-23 09:34N 63°15' E 007°37'1211.7
2017-Feb-23 08:33N 63°26' E 007°25'1712.6
2017-Feb-23 07:13N 63°42' E 007°31'18415.5
2017-Feb-22 19:18N 66°17' E 011°26'1215.8
2017-Feb-22 18:34N 66°27' E 011°41'1514.9
2017-Feb-22 17:34N 66°40' E 012°02'3115.0
2017-Feb-22 15:30N 67°05' E 012°46'1414.9
2017-Feb-22 14:33N 67°17' E 013°07'1615.6
2017-Feb-22 13:33N 67°29' E 013°32'1515.0
2017-Feb-22 12:33N 67°41' E 013°58'1515.4
2017-Feb-22 11:33N 67°52' E 014°24'1615.4
2017-Feb-22 10:33N 68°03' E 014°53'1515.3
2017-Feb-22 09:33N 68°11' E 015°28'1515.5
2017-Feb-22 08:33N 68°22' E 015°58'1313.3
2017-Feb-22 07:33N 68°33' E 016°17'9 9.2
2017-Feb-22 06:33N 68°39' E 016°37'1514.5
2017-Feb-22 05:33N 68°52' E 016°56'1515.2
2017-Feb-22 04:33N 69°04' E 017°21'1515.0
2017-Feb-22 03:34N 69°10' E 017°59'1110.6
2017-Feb-22 02:33N 69°21' E 018°05'1110.8
2017-Feb-22 01:33N 69°30' E 018°18'1313.2
2017-Feb-22 00:33N 69°36' E 018°52'1212.4
2017-Feb-21 23:33N 69°47' E 019°12'1515.2
2017-Feb-21 22:33N 69°53' E 019°52'1514.9
2017-Feb-21 21:33N 70°01' E 020°29'1414.1
2017-Feb-21 20:33N 70°09' E 021°03'1414.7
2017-Feb-21 19:34N 70°20' E 021°30'1111.1
2017-Feb-21 18:33N 70°21' E 022°03'1514.7
2017-Feb-21 17:34N 70°14' E 022°42'1413.6
2017-Feb-21 16:34N 70°04' E 023°08'7 6.2
2017-Feb-21 15:31N 69°59' E 023°20'0 0.0
2017-Feb-21 14:31N 69°59' E 023°20'0 0.0
2017-Feb-21 13:31N 69°59' E 023°20'0 0.0
2017-Feb-21 12:31N 69°59' E 023°20'0 0.0
2017-Feb-21 11:31N 69°59' E 023°20'0 0.0
2017-Feb-21 10:31N 69°59' E 023°20'0 0.0
2017-Feb-21 09:31N 69°59' E 023°20'0 0.0
2017-Feb-21 08:31N 69°59' E 023°20'0 0.0
2017-Feb-21 07:31N 69°59' E 023°20'0 0.0
2017-Feb-21 06:31N 69°59' E 023°20'0 0.0
2017-Feb-21 05:31N 69°59' E 023°20'0 0.0
2017-Feb-21 04:31N 69°59' E 023°20'0 0.0
2017-Feb-21 03:31N 69°59' E 023°20'0 0.0
2017-Feb-21 02:31N 69°59' E 023°20'0 0.0
2017-Feb-21 01:31N 69°59' E 023°20'0 0.0
2017-Feb-21 00:31N 69°59' E 023°20'0 0.0
2017-Feb-20 23:31N 69°59' E 023°20'0 0.0
2017-Feb-20 22:31N 69°59' E 023°20'0 0.0
2017-Feb-20 21:31N 69°59' E 023°20'0 0.0
2017-Feb-20 20:31N 69°59' E 023°20'0 0.0
2017-Feb-20 19:31N 69°59' E 023°20'0 0.0
2017-Feb-20 18:31N 69°59' E 023°20'0 0.0
2017-Feb-20 17:31N 69°59' E 023°20'0 0.0
2017-Feb-20 16:34N 69°59' E 023°20'0 0.0
2017-Feb-20 15:34N 69°59' E 023°20'0 0.0
2017-Feb-20 14:34N 69°59' E 023°20'0 0.0
2017-Feb-20 13:33N 69°59' E 023°20'0 0.0
2017-Feb-20 12:33N 69°59' E 023°20'0 0.0
2017-Feb-20 11:33N 69°59' E 023°20'0 0.0
2017-Feb-20 10:33N 69°59' E 023°20'0 0.0
2017-Feb-20 09:33N 69°59' E 023°20'0 0.0
2017-Feb-20 08:33N 69°59' E 023°20'0 0.0
2017-Feb-20 07:33N 69°59' E 023°20'0 0.0
2017-Feb-20 06:33N 69°59' E 023°20'0 0.0
2017-Feb-20 05:33N 69°59' E 023°20'4 4.1
2017-Feb-20 04:32N 70°02' E 023°14'1010.1
2017-Feb-20 03:33N 70°12' E 023°03'1111.3
2017-Feb-20 02:33N 70°15' E 022°32'8 8.4
2017-Feb-20 01:33N 70°23' E 022°22'1312.4
2017-Feb-20 00:33N 70°30' E 022°54'1212.2
2017-Feb-19 23:33N 70°38' E 023°19'1111.6
2017-Feb-19 22:33N 70°47' E 023°42'1211.4
2017-Feb-19 21:33N 70°54' E 024°10'1111.0
2017-Feb-19 20:33N 71°02' E 024°34'1211.7
2017-Feb-19 19:33N 70°59' E 025°09'10 9.8
2017-Feb-19 18:33N 70°55' E 025°36'8 7.9
2017-Feb-19 17:33N 70°59' E 025°58'0 0.0
2017-Feb-19 16:31N 70°59' E 025°58'0 0.0
2017-Feb-19 15:31N 70°59' E 025°58'0 0.0
2017-Feb-19 14:31N 70°59' E 025°58'0 0.0
2017-Feb-19 13:31N 70°59' E 025°58'0 0.0
2017-Feb-19 12:31N 70°59' E 025°58'0 0.0
2017-Feb-19 11:31N 70°59' E 025°58'0 0.0
2017-Feb-19 10:31N 70°59' E 025°58'0 0.0
2017-Feb-19 09:25N 70°59' E 025°58'0 0.0
2017-Feb-19 08:31N 70°59' E 025°58'0 0.2
2017-Feb-19 07:33N 70°59' E 025°57'8 8.3
2017-Feb-19 06:33N 70°56' E 025°35'1514.5
2017-Feb-19 05:33N 71°00' E 024°52'1312.8
2017-Feb-19 04:34N 70°56' E 024°15'1515.2
2017-Feb-19 03:33N 70°46' E 023°40'1515.4
2017-Feb-19 02:34N 70°35' E 023°08'1514.9
2017-Feb-19 01:33N 70°27' E 022°29'1515.3
2017-Feb-19 00:33N 70°25' E 021°44'1514.7
2017-Feb-18 23:34N 70°15' E 021°13'1514.8
2017-Feb-18 22:33N 70°03' E 020°47'1515.0
2017-Feb-18 21:33N 69°57' E 020°06'1514.9
2017-Feb-18 20:33N 69°49' E 019°30'1414.5
2017-Feb-18 19:33N 69°42' E 018°55'3 3.0
2017-Feb-18 18:32N 69°39' E 018°58'0 0.0
2017-Feb-18 17:32N 69°39' E 018°58'0 0.0
2017-Feb-18 16:32N 69°39' E 018°58'0 0.0
2017-Feb-18 15:32N 69°39' E 018°58'0 0.0
2017-Feb-18 14:32N 69°39' E 018°58'0 0.0
2017-Feb-18 13:32N 69°39' E 018°58'0 0.0
2017-Feb-18 12:32N 69°39' E 018°58'0 0.0
2017-Feb-18 11:29N 69°39' E 018°58'2 1.8
2017-Feb-18 10:33N 69°37' E 018°55'1212.1
2017-Feb-18 09:33N 69°31' E 018°25'1111.4
2017-Feb-18 08:33N 69°22' E 018°06'10 9.8
2017-Feb-18 07:34N 69°12' E 018°00'1313.4
2017-Feb-18 06:34N 69°06' E 017°27'1515.1
2017-Feb-18 05:33N 68°54' E 016°60'1515.0
2017-Feb-18 04:33N 68°41' E 016°40'1211.6
2017-Feb-18 03:33N 68°33' E 016°16'1212.1
2017-Feb-18 02:33N 68°23' E 016°00'1312.7
2017-Feb-18 01:33N 68°13' E 015°38'1514.8
2017-Feb-18 00:33N 68°07' E 015°01'1514.9
2017-Feb-17 23:33N 68°03' E 014°23'1514.7
2017-Feb-17 22:33N 68°00' E 013°44'1211.8
2017-Feb-17 21:33N 67°51' E 013°25'8 8.2
2017-Feb-17 20:33N 67°43' E 013°24'1111.0
2017-Feb-17 19:33N 67°34' E 013°43'1313.7
2017-Feb-17 18:33N 67°24' E 013°20'1413.6
2017-Feb-17 17:33N 67°13' E 012°57'4414.6
2017-Feb-17 14:33N 66°37' E 011°54'1514.7
2017-Feb-17 13:34N 66°25' E 011°34'23214.3
2017-Feb-16 21:25N 63°12' E 006°33'1314.8
2017-Feb-16 20:33N 63°02' E 006°16'1515.1
2017-Feb-16 19:34N 62°50' E 005°57'1514.9
2017-Feb-16 18:33N 62°36' E 005°41'1312.9
2017-Feb-16 17:33N 62°27' E 006°00'4 4.2
2017-Feb-16 16:31N 62°28' E 006°09'0 0.0
2017-Feb-16 15:31N 62°28' E 006°09'0 0.0
2017-Feb-16 14:31N 62°28' E 006°09'0 0.0
2017-Feb-16 13:31N 62°28' E 006°09'0 0.0
2017-Feb-16 12:31N 62°28' E 006°09'0 0.3
2017-Feb-16 11:33N 62°28' E 006°09'8 7.8
2017-Feb-16 10:33N 62°28' E 005°52'1312.5
2017-Feb-16 09:33N 62°32' E 005°27'1515.2
2017-Feb-16 08:33N 62°21' E 005°04'1615.9
2017-Feb-16 07:33N 62°10' E 004°39'4214.0
2017-Feb-16 04:33N 61°29' E 004°21'1615.8
2017-Feb-16 03:33N 61°13' E 004°19'1716.7
2017-Feb-16 02:33N 60°57' E 004°16'41516.9
2017-Feb-15 02:03N 54°02' E 004°38'5916.1
2017-Feb-14 22:25N 53°16' E 003°36'10815.7
2017-Feb-14 15:32N 51°38' E 002°24'1818.7
2017-Feb-14 14:33N 51°24' E 002°04'1919.1
2017-Feb-14 13:33N 51°10' E 001°44'2020.0
2017-Feb-14 12:33N 50°54' E 001°25'4118.2
2017-Feb-14 10:18N 50°28' E 000°34'  
Track history (hours):
 
Tides and Currents Weather Stations Pressure Air Temp Water Temp Dewpoint Dewpoint Depression Visibility Wind Speed Wind Dir Waves Ship Positions

Marco Polo

Operator: Orient Lines

Last reported at 2017-Feb-24 04:33 UTC. Time now 2017-Feb-24 08:20 UTC.
Position N 62°36' E 007°23'.

Type: Ship. MMSI: 308691456.

Date/timePositionNaut miles runAvg speedWind from/ knotsBaromVisibWave heightAir tempDewpointWater temp
2017-Feb-24 04:33N 62°36' E 007°23'1312.8
2017-Feb-24 03:33N 62°43' E 006°60'1111.3
2017-Feb-24 02:34N 62°54' E 006°53'1211.7
2017-Feb-24 01:33N 63°05' E 006°50'1211.8
2017-Feb-24 00:33N 63°11' E 007°12'1212.3
2017-Feb-23 23:33N 63°15' E 007°38'10 9.6
2017-Feb-23 22:33N 63°06' E 007°44'1 0.7
2017-Feb-23 21:31N 63°07' E 007°44'0 0.0
2017-Feb-23 20:31N 63°07' E 007°44'0 0.0
2017-Feb-23 19:31N 63°07' E 007°44'0 0.0
2017-Feb-23 18:31N 63°07' E 007°44'0 0.0
2017-Feb-23 17:31N 63°07' E 007°44'0 0.0
2017-Feb-23 16:31N 63°07' E 007°44'0 0.0
2017-Feb-23 15:31N 63°07' E 007°44'0 0.0
2017-Feb-23 14:31N 63°07' E 007°44'0 0.0
2017-Feb-23 13:31N 63°07' E 007°44'0 0.0
2017-Feb-23 12:31N 63°07' E 007°44'0 0.0
2017-Feb-23 11:34N 63°07' E 007°44'1 1.4
2017-Feb-23 10:33N 63°06' E 007°41'9 9.2
2017-Feb-23 09:34N 63°15' E 007°37'1211.7
2017-Feb-23 08:33N 63°26' E 007°25'1712.6
2017-Feb-23 07:13N 63°42' E 007°31'18415.5
2017-Feb-22 19:18N 66°17' E 011°26'1215.8
2017-Feb-22 18:34N 66°27' E 011°41'1514.9
2017-Feb-22 17:34N 66°40' E 012°02'3115.0
2017-Feb-22 15:30N 67°05' E 012°46'1414.9
2017-Feb-22 14:33N 67°17' E 013°07'1615.6
2017-Feb-22 13:33N 67°29' E 013°32'1515.0
2017-Feb-22 12:33N 67°41' E 013°58'1515.4
2017-Feb-22 11:33N 67°52' E 014°24'1615.4
2017-Feb-22 10:33N 68°03' E 014°53'1515.3
2017-Feb-22 09:33N 68°11' E 015°28'1515.5
2017-Feb-22 08:33N 68°22' E 015°58'1313.3
2017-Feb-22 07:33N 68°33' E 016°17'9 9.2
2017-Feb-22 06:33N 68°39' E 016°37'1514.5
2017-Feb-22 05:33N 68°52' E 016°56'1515.2
2017-Feb-22 04:33N 69°04' E 017°21'1515.0
2017-Feb-22 03:34N 69°10' E 017°59'1110.6
2017-Feb-22 02:33N 69°21' E 018°05'1110.8
2017-Feb-22 01:33N 69°30' E 018°18'1313.2
2017-Feb-22 00:33N 69°36' E 018°52'1212.4
2017-Feb-21 23:33N 69°47' E 019°12'1515.2
2017-Feb-21 22:33N 69°53' E 019°52'1514.9
2017-Feb-21 21:33N 70°01' E 020°29'1414.1
2017-Feb-21 20:33N 70°09' E 021°03'1414.7
2017-Feb-21 19:34N 70°20' E 021°30'1111.1
2017-Feb-21 18:33N 70°21' E 022°03'1514.7
2017-Feb-21 17:34N 70°14' E 022°42'1413.6
2017-Feb-21 16:34N 70°04' E 023°08'7 6.2
2017-Feb-21 15:31N 69°59' E 023°20'0 0.0
2017-Feb-21 14:31N 69°59' E 023°20'0 0.0
2017-Feb-21 13:31N 69°59' E 023°20'0 0.0
2017-Feb-21 12:31N 69°59' E 023°20'0 0.0
2017-Feb-21 11:31N 69°59' E 023°20'0 0.0
2017-Feb-21 10:31N 69°59' E 023°20'0 0.0
2017-Feb-21 09:31N 69°59' E 023°20'0 0.0
2017-Feb-21 08:31N 69°59' E 023°20'0 0.0
2017-Feb-21 07:31N 69°59' E 023°20'0 0.0
2017-Feb-21 06:31N 69°59' E 023°20'0 0.0
2017-Feb-21 05:31N 69°59' E 023°20'0 0.0
2017-Feb-21 04:31N 69°59' E 023°20'0 0.0
2017-Feb-21 03:31N 69°59' E 023°20'0 0.0
2017-Feb-21 02:31N 69°59' E 023°20'0 0.0
2017-Feb-21 01:31N 69°59' E 023°20'0 0.0
2017-Feb-21 00:31N 69°59' E 023°20'0 0.0
2017-Feb-20 23:31N 69°59' E 023°20'0 0.0
2017-Feb-20 22:31N 69°59' E 023°20'0 0.0
2017-Feb-20 21:31N 69°59' E 023°20'0 0.0
2017-Feb-20 20:31N 69°59' E 023°20'0 0.0
2017-Feb-20 19:31N 69°59' E 023°20'0 0.0
2017-Feb-20 18:31N 69°59' E 023°20'0 0.0
2017-Feb-20 17:31N 69°59' E 023°20'0 0.0
2017-Feb-20 16:34N 69°59' E 023°20'0 0.0
2017-Feb-20 15:34N 69°59' E 023°20'0 0.0
2017-Feb-20 14:34N 69°59' E 023°20'0 0.0
2017-Feb-20 13:33N 69°59' E 023°20'0 0.0
2017-Feb-20 12:33N 69°59' E 023°20'0 0.0
2017-Feb-20 11:33N 69°59' E 023°20'0 0.0
2017-Feb-20 10:33N 69°59' E 023°20'0 0.0
2017-Feb-20 09:33N 69°59' E 023°20'0 0.0
2017-Feb-20 08:33N 69°59' E 023°20'0 0.0
2017-Feb-20 07:33N 69°59' E 023°20'0 0.0
2017-Feb-20 06:33N 69°59' E 023°20'0 0.0
2017-Feb-20 05:33N 69°59' E 023°20'4 4.1
2017-Feb-20 04:32N 70°02' E 023°14'1010.1
2017-Feb-20 03:33N 70°12' E 023°03'1111.3
2017-Feb-20 02:33N 70°15' E 022°32'8 8.4
2017-Feb-20 01:33N 70°23' E 022°22'1312.4
2017-Feb-20 00:33N 70°30' E 022°54'1212.2
2017-Feb-19 23:33N 70°38' E 023°19'1111.6
2017-Feb-19 22:33N 70°47' E 023°42'1211.4
2017-Feb-19 21:33N 70°54' E 024°10'1111.0
2017-Feb-19 20:33N 71°02' E 024°34'1211.7
2017-Feb-19 19:33N 70°59' E 025°09'10 9.8
2017-Feb-19 18:33N 70°55' E 025°36'8 7.9
2017-Feb-19 17:33N 70°59' E 025°58'0 0.0
2017-Feb-19 16:31N 70°59' E 025°58'0 0.0
2017-Feb-19 15:31N 70°59' E 025°58'0 0.0
2017-Feb-19 14:31N 70°59' E 025°58'0 0.0
2017-Feb-19 13:31N 70°59' E 025°58'0 0.0
2017-Feb-19 12:31N 70°59' E 025°58'0 0.0
2017-Feb-19 11:31N 70°59' E 025°58'0 0.0
2017-Feb-19 10:31N 70°59' E 025°58'0 0.0
2017-Feb-19 09:25N 70°59' E 025°58'0 0.0
2017-Feb-19 08:31N 70°59' E 025°58'0 0.2
2017-Feb-19 07:33N 70°59' E 025°57'8 8.3
2017-Feb-19 06:33N 70°56' E 025°35'1514.5
2017-Feb-19 05:33N 71°00' E 024°52'1312.8
2017-Feb-19 04:34N 70°56' E 024°15'1515.2
2017-Feb-19 03:33N 70°46' E 023°40'1515.4
2017-Feb-19 02:34N 70°35' E 023°08'1514.9
2017-Feb-19 01:33N 70°27' E 022°29'1515.3
2017-Feb-19 00:33N 70°25' E 021°44'1514.7
2017-Feb-18 23:34N 70°15' E 021°13'1514.8
2017-Feb-18 22:33N 70°03' E 020°47'1515.0
2017-Feb-18 21:33N 69°57' E 020°06'1514.9
2017-Feb-18 20:33N 69°49' E 019°30'1414.5
2017-Feb-18 19:33N 69°42' E 018°55'3 3.0
2017-Feb-18 18:32N 69°39' E 018°58'0 0.0
2017-Feb-18 17:32N 69°39' E 018°58'0 0.0
2017-Feb-18 16:32N 69°39' E 018°58'0 0.0
2017-Feb-18 15:32N 69°39' E 018°58'0 0.0
2017-Feb-18 14:32N 69°39' E 018°58'0 0.0
2017-Feb-18 13:32N 69°39' E 018°58'0 0.0
2017-Feb-18 12:32N 69°39' E 018°58'0 0.0
2017-Feb-18 11:29N 69°39' E 018°58'2 1.8
2017-Feb-18 10:33N 69°37' E 018°55'1212.1
2017-Feb-18 09:33N 69°31' E 018°25'1111.4
2017-Feb-18 08:33N 69°22' E 018°06'10 9.8
2017-Feb-18 07:34N 69°12' E 018°00'1313.4
2017-Feb-18 06:34N 69°06' E 017°27'1515.1
2017-Feb-18 05:33N 68°54' E 016°60'1515.0
2017-Feb-18 04:33N 68°41' E 016°40'1211.6
2017-Feb-18 03:33N 68°33' E 016°16'1212.1
2017-Feb-18 02:33N 68°23' E 016°00'1312.7
2017-Feb-18 01:33N 68°13' E 015°38'1514.8
2017-Feb-18 00:33N 68°07' E 015°01'1514.9
2017-Feb-17 23:33N 68°03' E 014°23'1514.7
2017-Feb-17 22:33N 68°00' E 013°44'1211.8
2017-Feb-17 21:33N 67°51' E 013°25'8 8.2
2017-Feb-17 20:33N 67°43' E 013°24'1111.0
2017-Feb-17 19:33N 67°34' E 013°43'1313.7
2017-Feb-17 18:33N 67°24' E 013°20'1413.6
2017-Feb-17 17:33N 67°13' E 012°57'4414.6
2017-Feb-17 14:33N 66°37' E 011°54'1514.7
2017-Feb-17 13:34N 66°25' E 011°34'23214.3
2017-Feb-16 21:25N 63°12' E 006°33'1314.8
2017-Feb-16 20:33N 63°02' E 006°16'1515.1
2017-Feb-16 19:34N 62°50' E 005°57'1514.9
2017-Feb-16 18:33N 62°36' E 005°41'1312.9
2017-Feb-16 17:33N 62°27' E 006°00'4 4.2
2017-Feb-16 16:31N 62°28' E 006°09'0 0.0
2017-Feb-16 15:31N 62°28' E 006°09'0 0.0
2017-Feb-16 14:31N 62°28' E 006°09'0 0.0
2017-Feb-16 13:31N 62°28' E 006°09'0 0.0
2017-Feb-16 12:31N 62°28' E 006°09'0 0.3
2017-Feb-16 11:33N 62°28' E 006°09'8 7.8
2017-Feb-16 10:33N 62°28' E 005°52'1312.5
2017-Feb-16 09:33N 62°32' E 005°27'1515.2
2017-Feb-16 08:33N 62°21' E 005°04'1615.9
2017-Feb-16 07:33N 62°10' E 004°39'4214.0
2017-Feb-16 04:33N 61°29' E 004°21'1615.8
2017-Feb-16 03:33N 61°13' E 004°19'1716.7
2017-Feb-16 02:33N 60°57' E 004°16'41516.9
2017-Feb-15 02:03N 54°02' E 004°38'5916.1
2017-Feb-14 22:25N 53°16' E 003°36'10815.7
2017-Feb-14 15:32N 51°38' E 002°24'1818.7
2017-Feb-14 14:33N 51°24' E 002°04'1919.1
2017-Feb-14 13:33N 51°10' E 001°44'2020.0
2017-Feb-14 12:33N 50°54' E 001°25'4118.2
2017-Feb-14 10:18N 50°28' E 000°34'  

Dump ship's entire track history